Skip Navigation LinksHome page > Weather > Current weather Skip Navigation Links

Current Weather

Lawrence J Timmerman, Milwaukee

For information only: do not use for flight planning or navigation.
Latest weather
Observation time Saturday, April 20, 2019 7:15 AM CDT
Local time Saturday, April 20, 2019 7:41 AM CDT
Flight conditions Visual Meteorological Conditions
Winds
Wind direction North-Northeast (30°)
Wind speed 8 mph
Visibility 10 mi.
Sky condition
Ceiling unlimited
Sky clear
Temperature 37°F
Dewpoint 19°F
Altimeter 29.89 in.Hg
Derived measurements
Relative humidity 48%
Wind chill 31°F
Density altitude -615 ft.
Remarks
Fully automated report.
Automated weather observing station with precipitation discriminator.
METAR KMWC 201215Z AUTO 03007KT 10SM CLR 03/M07 A2989 RMK AO2

Settings

Location code

InnerDrive.Weather 4.0.6770.0 Release CLR 4.0.30319.42000
Copyright ©2018 Inner Drive Technology. All rights reserved. Portions Copyright ©1986-2018 David Braverman.

Find weather

Site navigation


Skip Navigation Links

Place info

Page info

PayPal - The safer, easier way to pay online!

Return home.

Copyright ©2019 Inner Drive Technology. Purveyors of fine, hand-crafted computer software. Page printed 2019-04-20T12:41:47 UTC.